sensor_id;sensor_type;location;lat;lon;timestamp;temperature;humidity
81869;DHT22;71320;52.252;13.382;2023-08-17T00:00:05;26.10;59.50
81869;DHT22;71320;52.252;13.382;2023-08-17T00:05:10;26.10;59.70
81869;DHT22;71320;52.252;13.382;2023-08-17T00:10:13;26.10;59.40
81869;DHT22;71320;52.252;13.382;2023-08-17T00:15:14;26.10;59.30
81869;DHT22;71320;52.252;13.382;2023-08-17T00:20:16;26.00;59.20
81869;DHT22;71320;52.252;13.382;2023-08-17T00:25:19;26.00;59.20
81869;DHT22;71320;52.252;13.382;2023-08-17T00:30:21;26.00;59.10
81869;DHT22;71320;52.252;13.382;2023-08-17T00:35:22;26.00;59.10
81869;DHT22;71320;52.252;13.382;2023-08-17T00:40:25;26.00;59.20
81869;DHT22;71320;52.252;13.382;2023-08-17T00:45:27;26.00;59.10
81869;DHT22;71320;52.252;13.382;2023-08-17T00:50:29;25.90;59.10
81869;DHT22;71320;52.252;13.382;2023-08-17T00:55:32;25.90;59.10
81869;DHT22;71320;52.252;13.382;2023-08-17T01:00:34;25.90;59.10
81869;DHT22;71320;52.252;13.382;2023-08-17T01:05:37;25.90;59.10
81869;DHT22;71320;52.252;13.382;2023-08-17T01:10:47;25.90;59.70
81869;DHT22;71320;52.252;13.382;2023-08-17T01:15:55;25.90;59.10
81869;DHT22;71320;52.252;13.382;2023-08-17T01:21:01;25.90;59.10
81869;DHT22;71320;52.252;13.382;2023-08-17T01:26:05;25.90;59.10
81869;DHT22;71320;52.252;13.382;2023-08-17T01:31:11;25.90;59.10
81869;DHT22;71320;52.252;13.382;2023-08-17T01:36:19;25.90;59.10
81869;DHT22;71320;52.252;13.382;2023-08-17T01:41:23;25.80;59.00
81869;DHT22;71320;52.252;13.382;2023-08-17T01:46:30;25.80;59.00
81869;DHT22;71320;52.252;13.382;2023-08-17T01:51:32;25.80;59.00
81869;DHT22;71320;52.252;13.382;2023-08-17T01:56:35;25.80;59.00
81869;DHT22;71320;52.252;13.382;2023-08-17T02:01:37;25.80;59.00
81869;DHT22;71320;52.252;13.382;2023-08-17T02:06:38;25.80;59.00
81869;DHT22;71320;52.252;13.382;2023-08-17T02:11:41;25.80;58.80
81869;DHT22;71320;52.252;13.382;2023-08-17T02:16:43;25.80;59.60
81869;DHT22;71320;52.252;13.382;2023-08-17T02:21:46;25.70;58.80
81869;DHT22;71320;52.252;13.382;2023-08-17T02:26:49;25.70;58.70
81869;DHT22;71320;52.252;13.382;2023-08-17T02:31:50;25.80;58.80
81869;DHT22;71320;52.252;13.382;2023-08-17T02:36:52;25.70;58.60
81869;DHT22;71320;52.252;13.382;2023-08-17T02:41:55;25.70;58.70
81869;DHT22;71320;52.252;13.382;2023-08-17T02:46:56;25.70;58.90
81869;DHT22;71320;52.252;13.382;2023-08-17T02:51:58;25.70;58.80
81869;DHT22;71320;52.252;13.382;2023-08-17T02:57:01;25.70;58.80
81869;DHT22;71320;52.252;13.382;2023-08-17T03:02:02;25.70;58.70
81869;DHT22;71320;52.252;13.382;2023-08-17T03:07:04;25.70;58.60
81869;DHT22;71320;52.252;13.382;2023-08-17T03:12:07;25.70;58.60
81869;DHT22;71320;52.252;13.382;2023-08-17T03:17:09;25.70;58.50
81869;DHT22;71320;52.252;13.382;2023-08-17T03:22:10;25.60;58.50
81869;DHT22;71320;52.252;13.382;2023-08-17T03:27:13;25.60;58.50
81869;DHT22;71320;52.252;13.382;2023-08-17T03:32:15;25.60;58.60
81869;DHT22;71320;52.252;13.382;2023-08-17T03:37:17;25.60;58.70
81869;DHT22;71320;52.252;13.382;2023-08-17T03:42:20;25.60;58.40
81869;DHT22;71320;52.252;13.382;2023-08-17T03:47:22;25.60;58.60
81869;DHT22;71320;52.252;13.382;2023-08-17T03:52:24;25.60;58.60
81869;DHT22;71320;52.252;13.382;2023-08-17T03:57:27;25.50;58.60
81869;DHT22;71320;52.252;13.382;2023-08-17T04:02:29;25.50;58.40
81869;DHT22;71320;52.252;13.382;2023-08-17T04:07:30;25.60;58.60
81869;DHT22;71320;52.252;13.382;2023-08-17T04:12:33;25.50;58.40
81869;DHT22;71320;52.252;13.382;2023-08-17T04:17:35;25.50;58.40
81869;DHT22;71320;52.252;13.382;2023-08-17T04:22:37;25.50;58.50
81869;DHT22;71320;52.252;13.382;2023-08-17T04:27:40;25.50;58.50
81869;DHT22;71320;52.252;13.382;2023-08-17T04:32:42;25.50;58.50
81869;DHT22;71320;52.252;13.382;2023-08-17T04:37:44;25.50;58.70
81869;DHT22;71320;52.252;13.382;2023-08-17T04:42:49;25.50;58.50
81869;DHT22;71320;52.252;13.382;2023-08-17T04:47:51;25.50;58.40
81869;DHT22;71320;52.252;13.382;2023-08-17T04:52:52;25.40;59.10
81869;DHT22;71320;52.252;13.382;2023-08-17T04:57:55;25.40;58.30
81869;DHT22;71320;52.252;13.382;2023-08-17T05:02:57;25.40;58.30
81869;DHT22;71320;52.252;13.382;2023-08-17T05:08:03;25.40;58.40
81869;DHT22;71320;52.252;13.382;2023-08-17T05:13:07;25.40;58.40
81869;DHT22;71320;52.252;13.382;2023-08-17T05:18:08;25.40;58.30
81869;DHT22;71320;52.252;13.382;2023-08-17T05:23:11;25.30;58.30
81869;DHT22;71320;52.252;13.382;2023-08-17T05:28:14;25.10;58.60
81869;DHT22;71320;52.252;13.382;2023-08-17T05:33:16;25.10;58.60
81869;DHT22;71320;52.252;13.382;2023-08-17T05:38:18;25.10;58.60
81869;DHT22;71320;52.252;13.382;2023-08-17T05:43:21;25.10;58.60
81869;DHT22;71320;52.252;13.382;2023-08-17T05:48:23;25.10;58.60
81869;DHT22;71320;52.252;13.382;2023-08-17T05:53:24;25.10;58.70
81869;DHT22;71320;52.252;13.382;2023-08-17T05:58:27;25.00;58.90
81869;DHT22;71320;52.252;13.382;2023-08-17T06:03:29;25.00;58.90
81869;DHT22;71320;52.252;13.382;2023-08-17T06:08:30;25.00;59.10
81869;DHT22;71320;52.252;13.382;2023-08-17T06:13:33;24.90;59.40
81869;DHT22;71320;52.252;13.382;2023-08-17T06:18:36;24.90;59.70
81869;DHT22;71320;52.252;13.382;2023-08-17T06:23:38;24.90;59.80
81869;DHT22;71320;52.252;13.382;2023-08-17T06:28:40;24.90;60.20
81869;DHT22;71320;52.252;13.382;2023-08-17T06:33:42;24.90;60.30
81869;DHT22;71320;52.252;13.382;2023-08-17T06:38:44;24.90;60.30
81869;DHT22;71320;52.252;13.382;2023-08-17T06:43:47;24.90;60.30
81869;DHT22;71320;52.252;13.382;2023-08-17T06:48:48;24.90;60.50
81869;DHT22;71320;52.252;13.382;2023-08-17T06:53:50;24.80;60.30
81869;DHT22;71320;52.252;13.382;2023-08-17T06:58:53;24.90;60.40
81869;DHT22;71320;52.252;13.382;2023-08-17T07:03:54;24.80;60.30
81869;DHT22;71320;52.252;13.382;2023-08-17T07:08:56;24.80;60.20
81869;DHT22;71320;52.252;13.382;2023-08-17T07:13:59;24.80;60.20
81869;DHT22;71320;52.252;13.382;2023-08-17T07:19:01;24.80;60.00
81869;DHT22;71320;52.252;13.382;2023-08-17T07:24:12;24.80;60.10
81869;DHT22;71320;52.252;13.382;2023-08-17T07:29:15;24.80;60.20
81869;DHT22;71320;52.252;13.382;2023-08-17T07:34:17;24.80;60.40
81869;DHT22;71320;52.252;13.382;2023-08-17T07:39:18;24.80;60.50
81869;DHT22;71320;52.252;13.382;2023-08-17T07:44:22;24.90;60.40
81869;DHT22;71320;52.252;13.382;2023-08-17T07:49:24;24.90;60.30
81869;DHT22;71320;52.252;13.382;2023-08-17T07:54:25;25.00;60.40
81869;DHT22;71320;52.252;13.382;2023-08-17T07:59:28;25.00;60.60
81869;DHT22;71320;52.252;13.382;2023-08-17T08:04:30;25.00;60.50
81869;DHT22;71320;52.252;13.382;2023-08-17T08:09:32;25.00;60.70
81869;DHT22;71320;52.252;13.382;2023-08-17T08:14:35;25.00;60.80
81869;DHT22;71320;52.252;13.382;2023-08-17T08:19:36;25.00;61.10
81869;DHT22;71320;52.252;13.382;2023-08-17T08:24:38;25.00;61.10
81869;DHT22;71320;52.252;13.382;2023-08-17T08:29:42;25.00;61.00
81869;DHT22;71320;52.252;13.382;2023-08-17T08:34:44;25.00;61.10
81869;DHT22;71320;52.252;13.382;2023-08-17T08:39:49;25.00;61.50
81869;DHT22;71320;52.252;13.382;2023-08-17T08:44:53;25.00;61.50
81869;DHT22;71320;52.252;13.382;2023-08-17T08:49:59;24.90;61.50
81869;DHT22;71320;52.252;13.382;2023-08-17T08:55:10;24.90;61.90
81869;DHT22;71320;52.252;13.382;2023-08-17T09:00:15;25.00;61.60
81869;DHT22;71320;52.252;13.382;2023-08-17T09:05:18;25.10;61.60
81869;DHT22;71320;52.252;13.382;2023-08-17T09:10:20;25.00;61.50
81869;DHT22;71320;52.252;13.382;2023-08-17T09:15:23;25.00;61.60
81869;DHT22;71320;52.252;13.382;2023-08-17T09:20:35;25.10;61.60
81869;DHT22;71320;52.252;13.382;2023-08-17T09:25:38;25.00;61.70
81869;DHT22;71320;52.252;13.382;2023-08-17T09:30:51;25.10;62.00
81869;DHT22;71320;52.252;13.382;2023-08-17T09:35:54;25.10;61.70
81869;DHT22;71320;52.252;13.382;2023-08-17T09:40:57;25.10;61.60
81869;DHT22;71320;52.252;13.382;2023-08-17T09:46:01;25.00;61.50
81869;DHT22;71320;52.252;13.382;2023-08-17T09:51:03;25.00;61.60
81869;DHT22;71320;52.252;13.382;2023-08-17T09:56:07;25.00;61.80
81869;DHT22;71320;52.252;13.382;2023-08-17T10:01:12;25.00;61.90
81869;DHT22;71320;52.252;13.382;2023-08-17T10:06:18;25.00;62.80
81869;DHT22;71320;52.252;13.382;2023-08-17T10:11:22;25.10;62.60
81869;DHT22;71320;52.252;13.382;2023-08-17T10:16:29;25.10;62.70
81869;DHT22;71320;52.252;13.382;2023-08-17T10:21:37;25.10;62.60
81869;DHT22;71320;52.252;13.382;2023-08-17T10:26:39;25.10;62.40
81869;DHT22;71320;52.252;13.382;2023-08-17T10:31:44;25.10;62.50
81869;DHT22;71320;52.252;13.382;2023-08-17T10:36:47;25.10;62.90
81869;DHT22;71320;52.252;13.382;2023-08-17T10:41:50;25.20;62.80
81869;DHT22;71320;52.252;13.382;2023-08-17T10:46:53;25.10;63.20
81869;DHT22;71320;52.252;13.382;2023-08-17T10:52:06;25.10;63.60
81869;DHT22;71320;52.252;13.382;2023-08-17T10:57:33;25.20;63.50
81869;DHT22;71320;52.252;13.382;2023-08-17T11:02:37;25.10;63.60
81869;DHT22;71320;52.252;13.382;2023-08-17T11:07:39;25.10;63.40
81869;DHT22;71320;52.252;13.382;2023-08-17T11:12:41;25.20;63.30
81869;DHT22;71320;52.252;13.382;2023-08-17T11:17:44;25.10;63.50
81869;DHT22;71320;52.252;13.382;2023-08-17T11:22:46;25.10;63.50
81869;DHT22;71320;52.252;13.382;2023-08-17T11:27:48;25.10;64.20
81869;DHT22;71320;52.252;13.382;2023-08-17T11:32:52;25.10;64.10
81869;DHT22;71320;52.252;13.382;2023-08-17T11:37:54;25.20;64.10
81869;DHT22;71320;52.252;13.382;2023-08-17T11:42:56;25.20;63.80
81869;DHT22;71320;52.252;13.382;2023-08-17T11:47:59;25.30;63.80
81869;DHT22;71320;52.252;13.382;2023-08-17T11:53:01;25.30;64.20
81869;DHT22;71320;52.252;13.382;2023-08-17T11:58:02;25.30;64.10
81869;DHT22;71320;52.252;13.382;2023-08-17T12:03:05;25.30;64.30
81869;DHT22;71320;52.252;13.382;2023-08-17T12:08:07;25.30;64.30
81869;DHT22;71320;52.252;13.382;2023-08-17T12:13:11;25.40;64.20
81869;DHT22;71320;52.252;13.382;2023-08-17T12:18:15;25.40;64.40
81869;DHT22;71320;52.252;13.382;2023-08-17T12:23:17;25.40;64.40
81869;DHT22;71320;52.252;13.382;2023-08-17T12:28:19;25.40;64.40
81869;DHT22;71320;52.252;13.382;2023-08-17T12:33:22;25.40;64.40
81869;DHT22;71320;52.252;13.382;2023-08-17T12:38:24;25.50;64.80
81869;DHT22;71320;52.252;13.382;2023-08-17T12:43:25;25.50;64.90
81869;DHT22;71320;52.252;13.382;2023-08-17T12:48:28;25.50;64.90
81869;DHT22;71320;52.252;13.382;2023-08-17T12:53:30;25.50;65.00
81869;DHT22;71320;52.252;13.382;2023-08-17T12:58:32;25.50;64.70
81869;DHT22;71320;52.252;13.382;2023-08-17T13:03:34;25.50;64.70
81869;DHT22;71320;52.252;13.382;2023-08-17T13:08:36;25.60;64.80
81869;DHT22;71320;52.252;13.382;2023-08-17T13:13:38;25.60;64.50
81869;DHT22;71320;52.252;13.382;2023-08-17T13:18:40;25.60;64.30
81869;DHT22;71320;52.252;13.382;2023-08-17T13:23:42;25.60;64.20
81869;DHT22;71320;52.252;13.382;2023-08-17T13:28:44;25.60;64.30
81869;DHT22;71320;52.252;13.382;2023-08-17T13:33:47;25.60;64.10
81869;DHT22;71320;52.252;13.382;2023-08-17T13:38:48;25.60;64.10
81869;DHT22;71320;52.252;13.382;2023-08-17T13:43:50;25.70;64.10
81869;DHT22;71320;52.252;13.382;2023-08-17T13:48:53;25.60;64.00
81869;DHT22;71320;52.252;13.382;2023-08-17T13:53:55;25.70;64.00
81869;DHT22;71320;52.252;13.382;2023-08-17T13:58:56;25.70;63.70
81869;DHT22;71320;52.252;13.382;2023-08-17T14:04:00;25.70;63.60
81869;DHT22;71320;52.252;13.382;2023-08-17T14:09:04;25.70;63.50
81869;DHT22;71320;52.252;13.382;2023-08-17T14:14:05;25.70;63.50
81869;DHT22;71320;52.252;13.382;2023-08-17T14:19:08;25.70;63.60
81869;DHT22;71320;52.252;13.382;2023-08-17T14:24:10;25.70;63.50
81869;DHT22;71320;52.252;13.382;2023-08-17T14:29:11;25.80;63.50
81869;DHT22;71320;52.252;13.382;2023-08-17T14:34:14;25.80;63.70
81869;DHT22;71320;52.252;13.382;2023-08-17T14:39:16;25.80;63.50
81869;DHT22;71320;52.252;13.382;2023-08-17T14:44:18;25.80;63.60
81869;DHT22;71320;52.252;13.382;2023-08-17T14:49:21;25.80;63.70
81869;DHT22;71320;52.252;13.382;2023-08-17T14:54:22;25.80;63.50
81869;DHT22;71320;52.252;13.382;2023-08-17T14:59:25;25.80;63.60
81869;DHT22;71320;52.252;13.382;2023-08-17T15:04:28;25.90;63.60
81869;DHT22;71320;52.252;13.382;2023-08-17T15:09:30;25.90;63.80
81869;DHT22;71320;52.252;13.382;2023-08-17T15:14:31;25.90;63.60
81869;DHT22;71320;52.252;13.382;2023-08-17T15:19:34;25.90;63.70
81869;DHT22;71320;52.252;13.382;2023-08-17T15:24:36;25.90;63.60
81869;DHT22;71320;52.252;13.382;2023-08-17T15:29:37;25.90;63.70
81869;DHT22;71320;52.252;13.382;2023-08-17T15:34:41;26.00;63.70
81869;DHT22;71320;52.252;13.382;2023-08-17T15:39:43;26.00;63.60
81869;DHT22;71320;52.252;13.382;2023-08-17T15:44:44;26.00;63.40
81869;DHT22;71320;52.252;13.382;2023-08-17T15:49:47;26.00;63.50
81869;DHT22;71320;52.252;13.382;2023-08-17T15:54:49;26.00;63.50
81869;DHT22;71320;52.252;13.382;2023-08-17T15:59:51;26.00;63.60
81869;DHT22;71320;52.252;13.382;2023-08-17T16:04:54;26.00;63.60
81869;DHT22;71320;52.252;13.382;2023-08-17T16:09:55;26.00;63.50
81869;DHT22;71320;52.252;13.382;2023-08-17T16:14:57;26.00;63.50
81869;DHT22;71320;52.252;13.382;2023-08-17T16:20:00;26.00;63.70
81869;DHT22;71320;52.252;13.382;2023-08-17T16:25:02;26.00;63.70
81869;DHT22;71320;52.252;13.382;2023-08-17T16:30:04;26.00;63.90
81869;DHT22;71320;52.252;13.382;2023-08-17T16:35:08;26.00;64.10
81869;DHT22;71320;52.252;13.382;2023-08-17T16:40:09;26.00;64.10
81869;DHT22;71320;52.252;13.382;2023-08-17T16:45:11;26.00;64.30
81869;DHT22;71320;52.252;13.382;2023-08-17T16:50:14;25.90;64.40
81869;DHT22;71320;52.252;13.382;2023-08-17T16:55:16;25.90;64.50
81869;DHT22;71320;52.252;13.382;2023-08-17T17:00:18;25.90;64.60
81869;DHT22;71320;52.252;13.382;2023-08-17T17:05:21;25.90;64.50
81869;DHT22;71320;52.252;13.382;2023-08-17T17:10:22;25.90;64.50
81869;DHT22;71320;52.252;13.382;2023-08-17T17:15:24;25.90;64.80
81869;DHT22;71320;52.252;13.382;2023-08-17T17:20:27;25.90;64.90
81869;DHT22;71320;52.252;13.382;2023-08-17T17:25:28;25.90;65.20
81869;DHT22;71320;52.252;13.382;2023-08-17T17:30:30;25.90;65.40
81869;DHT22;71320;52.252;13.382;2023-08-17T17:35:33;25.90;65.70
81869;DHT22;71320;52.252;13.382;2023-08-17T17:40:34;25.90;66.20
81869;DHT22;71320;52.252;13.382;2023-08-17T17:45:36;25.80;65.80
81869;DHT22;71320;52.252;13.382;2023-08-17T17:50:39;25.80;66.20
81869;DHT22;71320;52.252;13.382;2023-08-17T17:55:41;25.80;66.40
81869;DHT22;71320;52.252;13.382;2023-08-17T18:00:42;25.80;66.60
81869;DHT22;71320;52.252;13.382;2023-08-17T18:05:46;25.80;66.60
81869;DHT22;71320;52.252;13.382;2023-08-17T18:10:48;25.70;67.00
81869;DHT22;71320;52.252;13.382;2023-08-17T18:15:50;25.70;67.20
81869;DHT22;71320;52.252;13.382;2023-08-17T18:20:53;25.70;67.40
81869;DHT22;71320;52.252;13.382;2023-08-17T18:25:54;25.70;67.50
81869;DHT22;71320;52.252;13.382;2023-08-17T18:30:56;25.80;66.70
81869;DHT22;71320;52.252;13.382;2023-08-17T18:35:59;25.80;66.20
81869;DHT22;71320;52.252;13.382;2023-08-17T18:41:08;25.80;65.90
81869;DHT22;71320;52.252;13.382;2023-08-17T18:46:10;25.80;65.90
81869;DHT22;71320;52.252;13.382;2023-08-17T18:51:13;25.80;65.60
81869;DHT22;71320;52.252;13.382;2023-08-17T18:56:14;25.90;65.60
81869;DHT22;71320;52.252;13.382;2023-08-17T19:01:16;25.80;65.50
81869;DHT22;71320;52.252;13.382;2023-08-17T19:06:19;25.90;65.40
81869;DHT22;71320;52.252;13.382;2023-08-17T19:11:20;25.80;65.50
81869;DHT22;71320;52.252;13.382;2023-08-17T19:16:22;25.80;65.40
81869;DHT22;71320;52.252;13.382;2023-08-17T19:21:26;25.80;65.30
81869;DHT22;71320;52.252;13.382;2023-08-17T19:26:27;25.80;65.40
81869;DHT22;71320;52.252;13.382;2023-08-17T19:31:29;25.90;65.50
81869;DHT22;71320;52.252;13.382;2023-08-17T19:36:33;25.90;65.60
81869;DHT22;71320;52.252;13.382;2023-08-17T19:41:35;25.80;65.30
81869;DHT22;71320;52.252;13.382;2023-08-17T19:46:37;25.80;65.40
81869;DHT22;71320;52.252;13.382;2023-08-17T19:51:40;25.80;65.50
81869;DHT22;71320;52.252;13.382;2023-08-17T19:56:43;25.80;65.40
81869;DHT22;71320;52.252;13.382;2023-08-17T20:01:46;25.80;65.30
81869;DHT22;71320;52.252;13.382;2023-08-17T20:06:50;25.80;65.30
81869;DHT22;71320;52.252;13.382;2023-08-17T20:11:52;25.80;65.30
81869;DHT22;71320;52.252;13.382;2023-08-17T20:16:53;25.80;65.30
81869;DHT22;71320;52.252;13.382;2023-08-17T20:21:56;25.80;65.20
81869;DHT22;71320;52.252;13.382;2023-08-17T20:26:58;25.80;65.10
81869;DHT22;71320;52.252;13.382;2023-08-17T20:32:00;25.80;65.10
81869;DHT22;71320;52.252;13.382;2023-08-17T20:37:03;25.80;64.90
81869;DHT22;71320;52.252;13.382;2023-08-17T20:42:08;25.80;64.90
81869;DHT22;71320;52.252;13.382;2023-08-17T20:47:10;25.80;65.10
81869;DHT22;71320;52.252;13.382;2023-08-17T20:52:13;25.80;65.00
81869;DHT22;71320;52.252;13.382;2023-08-17T20:57:15;25.80;64.90
81869;DHT22;71320;52.252;13.382;2023-08-17T21:02:17;25.80;64.80
81869;DHT22;71320;52.252;13.382;2023-08-17T21:07:19;25.80;65.00
81869;DHT22;71320;52.252;13.382;2023-08-17T21:12:21;25.80;64.70
81869;DHT22;71320;52.252;13.382;2023-08-17T21:17:25;25.80;64.70
81869;DHT22;71320;52.252;13.382;2023-08-17T21:22:28;25.80;64.70
81869;DHT22;71320;52.252;13.382;2023-08-17T21:27:29;25.80;64.60
81869;DHT22;71320;52.252;13.382;2023-08-17T21:32:31;25.80;64.50
81869;DHT22;71320;52.252;13.382;2023-08-17T21:37:34;25.80;64.70
81869;DHT22;71320;52.252;13.382;2023-08-17T21:42:36;25.80;64.70
81869;DHT22;71320;52.252;13.382;2023-08-17T21:47:37;25.80;64.50
81869;DHT22;71320;52.252;13.382;2023-08-17T21:52:40;25.80;64.60
81869;DHT22;71320;52.252;13.382;2023-08-17T21:57:42;25.80;64.70
81869;DHT22;71320;52.252;13.382;2023-08-17T22:02:44;25.80;64.70
81869;DHT22;71320;52.252;13.382;2023-08-17T22:07:47;25.80;64.70
81869;DHT22;71320;52.252;13.382;2023-08-17T22:12:49;25.70;64.60
81869;DHT22;71320;52.252;13.382;2023-08-17T22:17:51;25.70;64.60
81869;DHT22;71320;52.252;13.382;2023-08-17T22:22:53;25.70;64.60
81869;DHT22;71320;52.252;13.382;2023-08-17T22:27:55;25.70;64.60
81869;DHT22;71320;52.252;13.382;2023-08-17T22:32:57;25.70;64.70
81869;DHT22;71320;52.252;13.382;2023-08-17T22:38:00;25.70;64.80
81869;DHT22;71320;52.252;13.382;2023-08-17T22:43:01;25.70;64.60
81869;DHT22;71320;52.252;13.382;2023-08-17T22:48:03;25.70;64.70
81869;DHT22;71320;52.252;13.382;2023-08-17T22:53:06;25.70;64.80
81869;DHT22;71320;52.252;13.382;2023-08-17T22:58:08;25.70;64.60
81869;DHT22;71320;52.252;13.382;2023-08-17T23:03:09;25.70;64.60
81869;DHT22;71320;52.252;13.382;2023-08-17T23:08:12;25.70;65.40
81869;DHT22;71320;52.252;13.382;2023-08-17T23:13:14;25.70;64.50
81869;DHT22;71320;52.252;13.382;2023-08-17T23:18:16;25.70;64.40
81869;DHT22;71320;52.252;13.382;2023-08-17T23:23:19;25.70;64.40
81869;DHT22;71320;52.252;13.382;2023-08-17T23:28:20;25.70;64.30
81869;DHT22;71320;52.252;13.382;2023-08-17T23:33:22;25.70;64.30
81869;DHT22;71320;52.252;13.382;2023-08-17T23:38:25;25.70;64.30
81869;DHT22;71320;52.252;13.382;2023-08-17T23:43:26;25.70;64.20
81869;DHT22;71320;52.252;13.382;2023-08-17T23:48:28;25.70;64.20
81869;DHT22;71320;52.252;13.382;2023-08-17T23:53:31;25.70;64.20
81869;DHT22;71320;52.252;13.382;2023-08-17T23:58:32;25.70;64.20
